Bentree, West Virginia
Current Conditions -  °F | °C
As of 5:54 PM on Thursday 20 Nov 2014 (Local Time) from KCRW Reporting Station
Clear Clear  
Wind Chill: 30°   Ceiling: Unl
Heat Index: 34°   Visibility: 10mi
Dew Point: 15°   Wind: 5mph
Humidity: 46%   Direction: 290°WNW
Pressure: 30.11"   Gusts: NA
Location:  38.28°N, 81.19°W
Report Text: KCRW 202254Z 29004KT 10SM CLR 01/M09 A3011 RMK AO2 SLP202 T00111094
Loading
Personal Weather Stations






























Interactive Weather Map New forecast layout! Learn more

10-Day Weather Forecast

Advertisements
Track Severe Weather on mobile